createdAt,value
2023-03-12T00:00:10.669Z,100.00
2023-03-12T00:02:38.107Z,100.00
2023-03-12T00:05:05.990Z,100.00
2023-03-12T00:07:33.264Z,100.00
2023-03-12T00:10:00.449Z,100.00
2023-03-12T00:12:27.851Z,100.00
2023-03-12T00:14:55.035Z,100.00
2023-03-12T00:17:22.281Z,100.00
2023-03-12T00:19:53.987Z,100.00
2023-03-12T00:22:25.767Z,100.00
2023-03-12T00:24:58.141Z,100.00
2023-03-12T00:27:26.391Z,100.00
2023-03-12T00:29:53.922Z,100.00
2023-03-12T00:32:21.470Z,100.00
2023-03-12T00:34:55.133Z,100.00
2023-03-12T00:37:23.022Z,100.00
2023-03-12T00:39:50.657Z,100.00
2023-03-12T00:42:18.364Z,100.00
2023-03-12T00:44:46.088Z,100.00
2023-03-12T00:47:14.260Z,100.00
2023-03-12T00:49:41.781Z,100.00
2023-03-12T00:52:09.310Z,100.00
2023-03-12T00:54:37.000Z,100.00
2023-03-12T00:57:04.615Z,100.00
2023-03-12T00:59:32.841Z,100.00
2023-03-12T01:02:00.048Z,100.00
2023-03-12T01:04:27.509Z,100.00
2023-03-12T01:06:55.890Z,100.00
2023-03-12T01:09:23.400Z,100.00
2023-03-12T01:11:52.056Z,100.00
2023-03-12T01:14:19.358Z,100.00
2023-03-12T01:16:47.545Z,100.00
2023-03-12T01:19:14.902Z,100.00
2023-03-12T01:21:42.199Z,100.00
2023-03-12T01:24:10.019Z,100.00
2023-03-12T01:26:37.347Z,100.00
2023-03-12T01:29:04.738Z,100.00
2023-03-12T01:31:32.218Z,100.00
2023-03-12T01:33:59.792Z,100.00
2023-03-12T01:36:29.818Z,100.00
2023-03-12T01:38:59.753Z,100.00
2023-03-12T01:41:32.116Z,100.00
2023-03-12T01:44:03.686Z,100.00
2023-03-12T01:46:38.405Z,100.00
2023-03-12T01:49:13.418Z,100.00
2023-03-12T01:52:03.539Z,100.00
2023-03-12T01:54:44.989Z,100.00
2023-03-12T01:57:17.282Z,100.00
2023-03-12T01:59:56.085Z,100.00
2023-03-12T02:02:27.233Z,100.00
2023-03-12T02:05:08.704Z,100.00
2023-03-12T02:07:36.154Z,100.00
2023-03-12T02:10:05.604Z,100.00
2023-03-12T02:12:33.055Z,100.00
2023-03-12T02:15:00.356Z,100.00
2023-03-12T02:17:27.776Z,100.00
2023-03-12T02:20:17.518Z,100.00
2023-03-12T02:22:52.867Z,100.00
2023-03-12T02:25:44.173Z,100.00
2023-03-12T02:28:15.950Z,100.00
2023-03-12T02:30:49.899Z,100.00
2023-03-12T02:33:17.511Z,100.00
2023-03-12T02:35:47.671Z,100.00
2023-03-12T02:38:34.834Z,100.00
2023-03-12T02:41:19.279Z,100.00
2023-03-12T02:43:58.494Z,100.00
2023-03-12T02:46:26.859Z,100.00
2023-03-12T02:48:55.310Z,100.00
2023-03-12T02:51:22.598Z,100.00
2023-03-12T02:53:54.793Z,100.00
2023-03-12T02:56:27.898Z,100.00
2023-03-12T02:58:55.170Z,100.00
2023-03-12T03:01:24.223Z,100.00
2023-03-12T03:03:51.651Z,100.00
2023-03-12T03:06:18.910Z,100.00
2023-03-12T03:08:46.733Z,100.00
2023-03-12T03:11:14.523Z,100.00
2023-03-12T03:13:41.702Z,100.00
2023-03-12T03:16:09.845Z,100.00
2023-03-12T03:18:37.172Z,100.00
2023-03-12T03:21:07.834Z,100.00
2023-03-12T03:23:37.228Z,100.00
2023-03-12T03:26:05.414Z,100.00
2023-03-12T03:28:32.662Z,100.00
2023-03-12T03:31:02.101Z,100.00
2023-03-12T03:33:36.114Z,100.00
2023-03-12T03:36:06.167Z,100.00
2023-03-12T03:38:37.045Z,100.00
2023-03-12T03:41:05.022Z,100.00
2023-03-12T03:43:35.197Z,100.00
2023-03-12T03:46:05.876Z,100.00
2023-03-12T03:48:36.939Z,100.00
2023-03-12T03:51:07.556Z,100.00
2023-03-12T03:53:36.609Z,100.00
2023-03-12T03:56:14.350Z,100.00
2023-03-12T03:58:46.476Z,100.00
2023-03-12T04:01:16.080Z,100.00
2023-03-12T04:03:45.060Z,100.00
2023-03-12T04:06:13.191Z,100.00
2023-03-12T04:08:41.048Z,100.00
2023-03-12T04:11:18.259Z,100.00
2023-03-12T04:13:46.812Z,100.00
2023-03-12T04:16:16.901Z,100.00
2023-03-12T04:18:45.393Z,100.00
2023-03-12T04:21:14.609Z,100.00
2023-03-12T04:23:43.030Z,100.00
2023-03-12T04:26:12.287Z,100.00
2023-03-12T04:28:40.014Z,100.00
2023-03-12T04:31:10.478Z,100.00
2023-03-12T04:33:46.253Z,100.00
2023-03-12T04:36:16.234Z,100.00
2023-03-12T04:38:45.740Z,100.00
2023-03-12T04:41:17.293Z,100.00
2023-03-12T04:43:49.370Z,100.00
2023-03-12T04:46:18.658Z,100.00
2023-03-12T04:48:45.890Z,100.00
2023-03-12T04:51:14.373Z,100.00
2023-03-12T04:53:41.941Z,100.00
2023-03-12T04:56:10.940Z,100.00
2023-03-12T04:58:39.337Z,100.00
2023-03-12T05:01:07.135Z,100.00
2023-03-12T05:03:35.212Z,100.00
2023-03-12T05:06:02.632Z,100.00
2023-03-12T05:08:30.262Z,100.00
2023-03-12T05:10:57.604Z,100.00
2023-03-12T05:13:26.410Z,100.00
2023-03-12T05:15:56.921Z,100.00
2023-03-12T05:18:26.553Z,100.00
2023-03-12T05:21:16.064Z,100.00
2023-03-12T05:23:44.555Z,100.00
2023-03-12T05:26:27.458Z,100.00
2023-03-12T05:29:02.341Z,100.00
2023-03-12T05:31:33.192Z,100.00
2023-03-12T05:34:03.062Z,100.00
2023-03-12T05:36:31.472Z,100.00
2023-03-12T05:39:00.025Z,100.00
2023-03-12T05:41:30.783Z,100.00
2023-03-12T05:44:04.305Z,100.00
2023-03-12T05:46:31.926Z,100.00
2023-03-12T05:49:00.371Z,100.00
2023-03-12T05:51:28.061Z,100.00
2023-03-12T05:53:55.334Z,100.00
2023-03-12T05:56:22.714Z,100.00
2023-03-12T05:58:50.141Z,100.00
2023-03-12T06:01:28.680Z,100.00
2023-03-12T06:03:58.217Z,100.00
2023-03-12T06:06:26.451Z,100.00
2023-03-12T06:08:54.555Z,100.00
2023-03-12T06:11:21.864Z,100.00
2023-03-12T06:13:49.084Z,100.00
2023-03-12T06:16:23.208Z,67.00
2023-03-12T06:18:54.879Z,55.41
2023-03-12T06:21:27.114Z,50.84
2023-03-12T06:23:55.012Z,49.96
2023-03-12T06:26:28.386Z,47.30
2023-03-12T06:28:55.825Z,46.23
2023-03-12T06:31:24.394Z,43.57
2023-03-12T06:33:53.807Z,43.85
2023-03-12T06:36:21.504Z,40.73
2023-03-12T06:38:48.906Z,40.29
2023-03-12T06:41:19.277Z,39.43
2023-03-12T06:43:47.595Z,39.09
2023-03-12T06:46:18.589Z,40.18
2023-03-12T06:48:46.651Z,40.48
2023-03-12T06:51:17.257Z,40.56
2023-03-12T06:53:45.983Z,42.65
2023-03-12T06:56:13.983Z,42.07
2023-03-12T06:58:42.035Z,41.83
2023-03-12T07:01:09.796Z,39.99
2023-03-12T07:03:37.486Z,39.67
2023-03-12T07:06:05.711Z,40.81
2023-03-12T07:08:33.267Z,40.79
2023-03-12T07:11:01.960Z,41.46
2023-03-12T07:13:30.429Z,42.86
2023-03-12T07:15:58.163Z,42.37
2023-03-12T07:18:25.682Z,42.60
2023-03-12T07:20:54.252Z,42.96
2023-03-12T07:23:22.322Z,43.79
2023-03-12T07:25:50.477Z,43.93
2023-03-12T07:28:19.241Z,44.80
2023-03-12T07:30:50.688Z,44.54
2023-03-12T07:33:21.846Z,44.57
2023-03-12T07:35:51.659Z,41.92
2023-03-12T07:38:19.516Z,38.22
2023-03-12T07:40:55.961Z,36.60
2023-03-12T07:43:25.220Z,39.36
2023-03-12T07:45:55.160Z,42.62
2023-03-12T07:48:22.470Z,36.88
2023-03-12T07:50:49.756Z,37.31
2023-03-12T07:53:17.564Z,38.79
2023-03-12T07:55:46.883Z,36.42
2023-03-12T07:58:16.613Z,38.30
2023-03-12T08:00:45.044Z,37.56
2023-03-12T08:03:13.793Z,35.78
2023-03-12T08:05:41.705Z,40.16
2023-03-12T08:08:09.803Z,38.58
2023-03-12T08:10:37.595Z,33.65
2023-03-12T08:13:05.003Z,34.00
2023-03-12T08:15:33.562Z,35.82
2023-03-12T08:18:01.587Z,33.16
2023-03-12T08:20:29.052Z,31.94
2023-03-12T08:22:56.264Z,33.87
2023-03-12T08:25:24.911Z,33.25
2023-03-12T08:27:52.453Z,33.23
2023-03-12T08:30:19.822Z,33.80
2023-03-12T08:32:47.286Z,31.54
2023-03-12T08:35:14.578Z,33.23
2023-03-12T08:37:41.960Z,31.04
2023-03-12T08:40:15.880Z,29.94
2023-03-12T08:42:45.013Z,30.42
2023-03-12T08:45:13.599Z,29.44
2023-03-12T08:47:42.900Z,31.00
2023-03-12T08:50:13.028Z,28.87
2023-03-12T08:52:40.434Z,28.43
2023-03-12T08:55:08.363Z,27.18
2023-03-12T08:57:35.808Z,26.27
2023-03-12T09:00:06.074Z,26.98
2023-03-12T09:02:33.662Z,25.64
2023-03-12T09:05:00.879Z,26.64
2023-03-12T09:07:28.404Z,27.75
2023-03-12T09:09:56.017Z,28.45
2023-03-12T09:12:24.274Z,28.72
2023-03-12T09:15:03.863Z,29.28
2023-03-12T09:17:32.372Z,27.74
2023-03-12T09:20:00.260Z,26.48
2023-03-12T09:22:30.665Z,25.12
2023-03-12T09:24:58.011Z,24.05
2023-03-12T09:27:25.340Z,23.71
2023-03-12T09:30:00.723Z,23.60
2023-03-12T09:32:29.583Z,23.03
2023-03-12T09:34:57.134Z,23.31
2023-03-12T09:37:24.679Z,22.31
2023-03-12T09:39:53.211Z,21.67
2023-03-12T09:42:47.579Z,24.16
2023-03-12T09:45:26.600Z,21.67
2023-03-12T09:47:58.587Z,19.28
2023-03-12T09:50:40.734Z,18.84
2023-03-12T09:53:21.332Z,20.15
2023-03-12T09:55:52.636Z,21.61
2023-03-12T09:58:33.684Z,19.91
2023-03-12T10:01:24.080Z,19.59
2023-03-12T10:04:25.268Z,17.76
2023-03-12T10:06:56.155Z,19.21
2023-03-12T10:09:32.671Z,19.43
2023-03-12T10:12:35.718Z,20.16
2023-03-12T10:15:47.472Z,21.15
2023-03-12T10:18:21.293Z,21.42
2023-03-12T10:21:12.149Z,19.88
2023-03-12T10:23:47.518Z,20.37
2023-03-12T10:26:44.101Z,21.87
2023-03-12T10:29:19.513Z,20.96
2023-03-12T10:31:58.725Z,19.68
2023-03-12T10:34:49.152Z,18.88
2023-03-12T10:37:26.898Z,19.82
2023-03-12T10:40:01.011Z,20.84
2023-03-12T10:42:30.641Z,20.96
2023-03-12T10:45:11.055Z,20.01
2023-03-12T10:47:39.128Z,19.68
2023-03-12T10:50:20.325Z,18.97
2023-03-12T10:52:50.737Z,21.05
2023-03-12T10:55:24.708Z,21.90
2023-03-12T10:57:53.175Z,22.13
2023-03-12T11:00:27.271Z,21.03
2023-03-12T11:03:05.514Z,23.17
2023-03-12T11:05:37.246Z,20.97
2023-03-12T11:08:20.541Z,21.68
2023-03-12T11:10:48.318Z,19.55
2023-03-12T11:13:30.291Z,21.56
2023-03-12T11:16:17.655Z,22.80
2023-03-12T11:19:01.386Z,21.58
2023-03-12T11:21:31.657Z,23.23
2023-03-12T11:23:58.739Z,22.72
2023-03-12T11:26:35.171Z,21.95
2023-03-12T11:29:40.107Z,20.05
2023-03-12T11:32:34.645Z,21.15
2023-03-12T11:35:02.105Z,19.78
2023-03-12T11:37:59.923Z,21.47
2023-03-12T11:40:59.940Z,23.80
2023-03-12T11:43:58.592Z,25.21
2023-03-12T11:46:28.476Z,24.51
2023-03-12T11:49:09.026Z,23.87
2023-03-12T11:51:51.246Z,21.78
2023-03-12T11:54:58.054Z,21.77
2023-03-12T11:57:49.898Z,24.45
2023-03-12T12:00:21.173Z,24.13
2023-03-12T12:03:17.817Z,26.32
2023-03-12T12:06:37.017Z,27.32
2023-03-12T12:09:40.609Z,27.27
2023-03-12T12:12:31.467Z,28.77
2023-03-12T12:15:39.064Z,29.29
2023-03-12T12:18:42.851Z,28.62
2023-03-12T12:21:51.462Z,29.39
2023-03-12T12:24:34.702Z,28.95
2023-03-12T12:27:18.922Z,29.85
2023-03-12T12:30:04.679Z,30.71
2023-03-12T12:32:55.615Z,27.83
2023-03-12T12:35:26.487Z,30.91
2023-03-12T12:38:38.104Z,31.42
2023-03-12T12:41:40.672Z,32.91
2023-03-12T12:44:18.092Z,31.73
2023-03-12T12:47:03.842Z,31.03
2023-03-12T12:49:49.016Z,29.29
2023-03-12T12:52:20.243Z,33.25
2023-03-12T12:55:06.769Z,34.58
2023-03-12T12:57:48.485Z,36.54
2023-03-12T13:00:42.288Z,35.89
2023-03-12T13:03:25.034Z,35.46
2023-03-12T13:06:03.611Z,36.27
2023-03-12T13:08:34.408Z,33.54
2023-03-12T13:11:20.323Z,34.26
2023-03-12T13:14:03.651Z,34.47
2023-03-12T13:16:39.358Z,34.28
2023-03-12T13:19:15.341Z,34.95
2023-03-12T13:22:15.559Z,34.95
2023-03-12T13:25:41.806Z,34.13
2023-03-12T13:29:11.421Z,36.58
2023-03-12T13:31:41.938Z,36.84
2023-03-12T13:34:18.136Z,36.21
2023-03-12T13:36:52.477Z,33.71
2023-03-12T13:39:35.292Z,33.73
2023-03-12T13:42:34.790Z,36.61
2023-03-12T13:45:25.203Z,35.67
2023-03-12T13:47:58.403Z,37.75
2023-03-12T13:50:26.796Z,38.14
2023-03-12T13:53:14.997Z,37.89
2023-03-12T13:55:43.855Z,39.25
2023-03-12T13:58:23.616Z,38.18
2023-03-12T14:01:04.736Z,40.50
2023-03-12T14:03:40.688Z,42.11
2023-03-12T14:06:17.834Z,42.03
2023-03-12T14:09:08.366Z,43.80
2023-03-12T14:12:14.370Z,44.84
2023-03-12T14:15:03.134Z,45.63
2023-03-12T14:17:33.373Z,43.50
2023-03-12T14:20:07.514Z,44.75
2023-03-12T14:22:38.296Z,42.90
2023-03-12T14:25:29.090Z,41.33
2023-03-12T14:27:56.323Z,42.87
2023-03-12T14:30:39.589Z,42.22
2023-03-12T14:33:07.743Z,45.10
2023-03-12T14:35:40.608Z,44.10
2023-03-12T14:38:12.334Z,44.74
2023-03-12T14:40:46.089Z,43.63
2023-03-12T14:43:26.967Z,43.71
2023-03-12T14:46:03.778Z,45.04
2023-03-12T14:48:33.649Z,45.11
2023-03-12T14:51:02.578Z,45.63
2023-03-12T14:53:33.175Z,45.99
2023-03-12T14:56:07.738Z,43.88
2023-03-12T14:58:41.828Z,45.81
2023-03-12T15:01:15.305Z,46.84
2023-03-12T15:03:46.553Z,47.19
2023-03-12T15:06:35.055Z,45.60
2023-03-12T15:09:04.652Z,44.98
2023-03-12T15:11:34.068Z,46.20
2023-03-12T15:14:08.306Z,47.44
2023-03-12T15:16:35.979Z,46.45
2023-03-12T15:19:04.245Z,46.33
2023-03-12T15:21:35.732Z,46.75
2023-03-12T15:24:03.788Z,46.24
2023-03-12T15:26:34.579Z,46.24
2023-03-12T15:29:26.813Z,46.29
2023-03-12T15:31:59.021Z,44.24
2023-03-12T15:34:28.400Z,46.04
2023-03-12T15:36:55.638Z,44.81
2023-03-12T15:39:27.314Z,44.77
2023-03-12T15:41:55.233Z,45.23
2023-03-12T15:44:24.768Z,45.08
2023-03-12T15:47:04.982Z,44.93
2023-03-12T15:49:36.220Z,45.59
2023-03-12T15:52:26.667Z,46.16
2023-03-12T15:55:05.895Z,45.70
2023-03-12T15:57:54.455Z,43.48
2023-03-12T16:00:41.289Z,45.09
2023-03-12T16:03:19.586Z,44.31
2023-03-12T16:05:47.674Z,45.01
2023-03-12T16:08:23.455Z,47.62
2023-03-12T16:10:50.859Z,46.72
2023-03-12T16:13:21.328Z,42.77
2023-03-12T16:15:49.058Z,44.10
2023-03-12T16:18:19.093Z,44.16
2023-03-12T16:20:47.973Z,43.47
2023-03-12T16:23:15.917Z,42.12
2023-03-12T16:25:45.490Z,46.34
2023-03-12T16:28:15.616Z,42.21
2023-03-12T16:30:42.942Z,42.31
2023-03-12T16:33:14.267Z,41.36
2023-03-12T16:35:41.563Z,41.41
2023-03-12T16:38:08.870Z,42.88
2023-03-12T16:40:38.361Z,39.94
2023-03-12T16:43:07.873Z,43.06
2023-03-12T16:45:36.424Z,44.24
2023-03-12T16:48:06.868Z,42.40
2023-03-12T16:50:34.010Z,42.13
2023-03-12T16:53:02.695Z,41.26
2023-03-12T16:55:30.615Z,41.82
2023-03-12T16:58:02.256Z,42.67
2023-03-12T17:00:32.801Z,45.04
2023-03-12T17:03:00.665Z,42.71
2023-03-12T17:05:30.045Z,42.81
2023-03-12T17:07:57.373Z,47.69
2023-03-12T17:10:25.744Z,43.55
2023-03-12T17:12:53.401Z,48.81
2023-03-12T17:15:23.536Z,47.42
2023-03-12T17:17:50.762Z,45.93
2023-03-12T17:20:20.857Z,45.20
2023-03-12T17:22:48.414Z,43.86
2023-03-12T17:25:26.064Z,43.90
2023-03-12T17:27:53.954Z,43.96
2023-03-12T17:30:22.133Z,43.60
2023-03-12T17:32:50.826Z,44.69
2023-03-12T17:35:19.276Z,45.34
2023-03-12T17:37:48.514Z,44.98
2023-03-12T17:40:16.498Z,49.25
2023-03-12T17:42:43.587Z,49.10
2023-03-12T17:45:11.229Z,45.36
2023-03-12T17:47:38.388Z,45.42
2023-03-12T17:50:06.928Z,46.96
2023-03-12T17:52:34.265Z,46.88
2023-03-12T17:55:01.751Z,44.91
2023-03-12T17:57:29.920Z,49.16
2023-03-12T17:59:57.037Z,47.51
2023-03-12T18:02:24.697Z,48.83
2023-03-12T18:04:51.929Z,48.86
2023-03-12T18:07:19.066Z,48.54
2023-03-12T18:09:46.296Z,47.92
2023-03-12T18:12:13.486Z,46.94
2023-03-12T18:14:40.673Z,46.61
2023-03-12T18:17:08.013Z,45.24
2023-03-12T18:19:35.679Z,47.11
2023-03-12T18:22:02.998Z,47.21
2023-03-12T18:24:30.333Z,46.47
2023-03-12T18:26:59.323Z,46.89
2023-03-12T18:29:26.894Z,45.79
2023-03-12T18:31:54.060Z,45.98
2023-03-12T18:34:23.462Z,47.12
2023-03-12T18:36:50.753Z,46.43
2023-03-12T18:39:17.870Z,49.61
2023-03-12T18:41:45.027Z,46.25
2023-03-12T18:44:13.204Z,46.38
2023-03-12T18:46:40.485Z,48.46
2023-03-12T18:49:09.276Z,46.63
2023-03-12T18:51:36.418Z,45.73
2023-03-12T18:54:03.818Z,45.24
2023-03-12T18:56:30.870Z,44.96
2023-03-12T18:58:58.155Z,45.21
2023-03-12T19:01:26.261Z,46.28
2023-03-12T19:03:53.599Z,46.15
2023-03-12T19:06:20.653Z,45.54
2023-03-12T19:08:47.996Z,45.94
2023-03-12T19:11:15.873Z,45.85
2023-03-12T19:13:43.609Z,44.39
2023-03-12T19:16:12.768Z,45.44
2023-03-12T19:18:40.138Z,46.73
2023-03-12T19:21:08.194Z,45.92
2023-03-12T19:23:35.888Z,46.05
2023-03-12T19:26:04.257Z,44.27
2023-03-12T19:28:32.158Z,45.48
2023-03-12T19:31:04.688Z,47.16
2023-03-12T19:33:33.166Z,43.63
2023-03-12T19:36:00.571Z,43.50
2023-03-12T19:38:28.117Z,44.19
2023-03-12T19:40:56.861Z,43.97
2023-03-12T19:43:24.613Z,43.98
2023-03-12T19:45:53.359Z,46.13
2023-03-12T19:48:20.623Z,45.82
2023-03-12T19:50:47.921Z,44.83
2023-03-12T19:53:15.122Z,45.66
2023-03-12T19:55:42.253Z,45.08
2023-03-12T19:58:09.314Z,46.17
2023-03-12T20:00:36.626Z,46.04
2023-03-12T20:03:05.086Z,46.47
2023-03-12T20:05:32.619Z,46.99
2023-03-12T20:07:59.739Z,45.47
2023-03-12T20:10:29.047Z,46.09
2023-03-12T20:12:56.371Z,47.07
2023-03-12T20:15:23.968Z,46.45
2023-03-12T20:17:54.705Z,47.32
2023-03-12T20:20:21.842Z,47.66
2023-03-12T20:22:49.180Z,48.80
2023-03-12T20:25:17.303Z,48.28
2023-03-12T20:27:44.897Z,47.14
2023-03-12T20:30:12.852Z,48.70
2023-03-12T20:32:40.176Z,49.38
2023-03-12T20:35:07.483Z,49.99
2023-03-12T20:37:34.721Z,50.64
2023-03-12T20:40:01.905Z,49.02
2023-03-12T20:42:29.004Z,49.99
2023-03-12T20:44:56.118Z,49.43
2023-03-12T20:47:23.359Z,50.70
2023-03-12T20:49:50.586Z,49.22
2023-03-12T20:52:17.661Z,51.97
2023-03-12T20:54:44.759Z,50.65
2023-03-12T20:57:11.823Z,50.79
2023-03-12T20:59:39.011Z,49.76
2023-03-12T21:02:06.349Z,48.65
2023-03-12T21:04:33.694Z,49.34
2023-03-12T21:07:00.737Z,52.03
2023-03-12T21:09:27.973Z,50.01
2023-03-12T21:11:55.183Z,49.93
2023-03-12T21:14:22.469Z,50.33
2023-03-12T21:16:49.905Z,51.00
2023-03-12T21:19:17.053Z,52.00
2023-03-12T21:21:44.184Z,52.45
2023-03-12T21:24:11.587Z,53.36
2023-03-12T21:26:38.807Z,53.19
2023-03-12T21:29:05.964Z,54.50
2023-03-12T21:31:33.111Z,53.00
2023-03-12T21:34:00.188Z,53.94
2023-03-12T21:36:27.497Z,54.45
2023-03-12T21:38:54.664Z,56.00
2023-03-12T21:41:21.953Z,56.27
2023-03-12T21:43:49.164Z,57.09
2023-03-12T21:46:19.372Z,56.43
2023-03-12T21:48:47.849Z,56.77
2023-03-12T21:51:16.579Z,57.85
2023-03-12T21:53:43.980Z,59.25
2023-03-12T21:56:11.313Z,58.35
2023-03-12T21:58:38.431Z,59.00
2023-03-12T22:01:13.732Z,59.22
2023-03-12T22:03:42.291Z,60.13
2023-03-12T22:06:10.246Z,59.95
2023-03-12T22:08:38.133Z,61.37
2023-03-12T22:11:06.365Z,61.31
2023-03-12T22:13:33.754Z,62.32
2023-03-12T22:16:03.351Z,63.70
2023-03-12T22:18:30.504Z,63.71
2023-03-12T22:21:01.819Z,64.56
2023-03-12T22:23:30.055Z,64.32
2023-03-12T22:26:04.697Z,64.20
2023-03-12T22:28:32.095Z,65.53
2023-03-12T22:31:04.145Z,65.49
2023-03-12T22:33:31.414Z,66.94
2023-03-12T22:35:58.706Z,67.35
2023-03-12T22:38:25.945Z,67.16
2023-03-12T22:40:55.510Z,67.59
2023-03-12T22:43:25.357Z,67.97
2023-03-12T22:45:55.482Z,67.77
2023-03-12T22:48:22.538Z,67.87
2023-03-12T22:50:55.948Z,69.04
2023-03-12T22:53:23.182Z,67.79
2023-03-12T22:56:00.574Z,69.15
2023-03-12T22:58:28.283Z,69.06
2023-03-12T23:01:16.157Z,68.76
2023-03-12T23:03:44.863Z,68.72
2023-03-12T23:06:17.393Z,69.23
2023-03-12T23:08:47.063Z,69.41
2023-03-12T23:11:15.499Z,68.75
2023-03-12T23:13:44.661Z,68.53
2023-03-12T23:16:14.656Z,68.46
2023-03-12T23:18:44.914Z,68.68
2023-03-12T23:21:15.216Z,67.97
2023-03-12T23:23:43.593Z,70.22
2023-03-12T23:26:16.813Z,70.91
2023-03-12T23:28:44.118Z,69.80
2023-03-12T23:31:11.231Z,69.71
2023-03-12T23:33:38.508Z,69.96
2023-03-12T23:36:08.884Z,70.85
2023-03-12T23:38:37.609Z,70.87
2023-03-12T23:41:06.433Z,71.82
2023-03-12T23:43:33.749Z,71.39
2023-03-12T23:46:02.786Z,72.55
2023-03-12T23:48:31.754Z,72.50
2023-03-12T23:51:12.383Z,72.37
2023-03-12T23:53:40.703Z,71.31
2023-03-12T23:56:11.208Z,72.01
2023-03-12T23:58:38.986Z,72.65
